Terminal Aerodrome Forecast
Issued by NWS

Home | Current Version | Previous Version | Text Only | Print | Product List | Glossary On
Versions: 1 2 3 4 5 6 7 8 9 10 11 12 13 14 15 16 17
000
FTUS43 KICT 272324
TAFCNU
TAF
KCNU 272324Z 2800/2824 06013KT P6SM SCT120 BKN200
     FM280300 04007KT P6SM BKN150
     FM280900 01006KT P6SM SCT150
     FM281800 03009G16KT P6SM SCT250=

USA.gov is the U.S. government's official web portal to all federal, state and local government web resources and services.